createdAt,value
2022-10-12T00:05:01.062Z,99707.94
2022-10-12T00:10:05.530Z,99731.94
2022-10-12T00:15:08.593Z,99729.50
2022-10-12T00:20:11.820Z,99708.84
2022-10-12T00:25:14.527Z,99716.56
2022-10-12T00:30:17.237Z,99724.06
2022-10-12T00:35:19.809Z,99717.84
2022-10-12T00:40:23.352Z,99715.91
2022-10-12T00:45:27.077Z,99719.75
2022-10-12T00:50:35.482Z,99712.41
2022-10-12T00:55:44.709Z,99711.31
2022-10-12T01:00:47.498Z,99726.59
2022-10-12T01:05:50.398Z,99720.53
2022-10-12T01:10:53.022Z,99714.38
2022-10-12T01:16:25.388Z,99715.47
2022-10-12T01:21:28.684Z,99692.06
2022-10-12T01:26:39.940Z,99706.00
2022-10-12T01:31:53.088Z,99667.81
2022-10-12T01:37:11.725Z,99700.53
2022-10-12T01:42:20.406Z,99694.38
2022-10-12T01:47:23.060Z,99688.47
2022-10-12T01:52:32.224Z,99659.53
2022-10-12T01:58:01.116Z,99685.69
2022-10-12T02:03:17.317Z,99684.72
2022-10-12T02:08:26.440Z,99661.88
2022-10-12T02:13:33.175Z,99674.16
2022-10-12T02:18:40.706Z,99678.03
2022-10-12T02:23:45.725Z,99664.06
2022-10-12T02:28:50.639Z,99682.09
2022-10-12T02:34:13.532Z,99671.72
2022-10-12T02:39:45.900Z,99684.47
2022-10-12T02:44:49.322Z,99677.59
2022-10-12T02:49:53.794Z,99669.16
2022-10-12T02:54:56.465Z,99680.09
2022-10-12T02:59:59.053Z,99672.91
2022-10-12T03:05:01.644Z,99681.38
2022-10-12T03:10:05.817Z,99665.47
2022-10-12T03:15:08.629Z,99669.09
2022-10-12T03:20:11.582Z,99667.66
2022-10-12T03:25:14.634Z,99665.41
2022-10-12T03:30:17.394Z,99653.59
2022-10-12T03:35:19.965Z,99665.75
2022-10-12T03:40:22.604Z,99668.44
2022-10-12T03:45:25.201Z,99664.38
2022-10-12T03:50:27.914Z,99661.31
2022-10-12T03:55:31.588Z,99642.69
2022-10-12T04:00:34.368Z,99660.44
2022-10-12T04:05:36.984Z,99656.56
2022-10-12T04:10:39.605Z,99667.22
2022-10-12T04:15:42.161Z,99658.16
2022-10-12T04:20:48.097Z,99667.00
2022-10-12T04:25:50.774Z,99667.47
2022-10-12T04:30:53.418Z,99657.84
2022-10-12T04:35:56.270Z,99655.78
2022-10-12T04:40:59.010Z,99646.53
2022-10-12T04:46:01.656Z,99652.03
2022-10-12T04:51:11.632Z,99663.72
2022-10-12T04:56:14.511Z,99666.41
2022-10-12T05:01:17.184Z,99642.41
2022-10-12T05:06:19.797Z,99669.03
2022-10-12T05:11:22.366Z,99662.66
2022-10-12T05:16:25.277Z,99658.59
2022-10-12T05:21:27.952Z,99656.16
2022-10-12T05:26:30.543Z,99655.56
2022-10-12T05:31:33.157Z,99658.38
2022-10-12T05:36:35.824Z,99646.53
2022-10-12T05:41:38.809Z,99663.91
2022-10-12T05:46:41.374Z,99627.91
2022-10-12T05:51:44.178Z,99648.63
2022-10-12T05:56:46.948Z,99632.34
2022-10-12T06:01:50.107Z,99675.25
2022-10-12T06:06:52.808Z,99659.78
2022-10-12T06:11:55.437Z,99634.94
2022-10-12T06:16:58.136Z,99662.69
2022-10-12T06:22:00.743Z,99661.88
2022-10-12T06:27:03.410Z,99658.53
2022-10-12T06:32:06.079Z,99650.13
2022-10-12T06:37:16.401Z,99649.31
2022-10-12T06:42:31.737Z,99638.16
2022-10-12T06:47:34.421Z,99642.47
2022-10-12T06:52:37.622Z,99615.75
2022-10-12T06:57:40.544Z,99625.09
2022-10-12T07:02:43.143Z,99623.25
2022-10-12T07:07:46.003Z,99627.44
2022-10-12T07:12:48.664Z,99624.38
2022-10-12T07:17:51.283Z,99614.94
2022-10-12T07:22:53.931Z,99618.34
2022-10-12T07:27:56.857Z,99627.72
2022-10-12T07:32:59.483Z,99625.97
2022-10-12T07:38:03.008Z,99627.06
2022-10-12T07:43:15.680Z,99634.94
2022-10-12T07:48:19.589Z,99630.13
2022-10-12T07:53:22.205Z,99638.56
2022-10-12T07:58:24.904Z,99638.47
2022-10-12T08:03:27.541Z,99629.03
2022-10-12T08:08:30.245Z,99638.69
2022-10-12T08:13:33.860Z,99636.81
2022-10-12T08:18:36.584Z,99634.22
2022-10-12T08:23:40.512Z,99623.84
2022-10-12T08:28:43.694Z,99633.97
2022-10-12T08:33:46.610Z,99637.50
2022-10-12T08:38:55.027Z,99627.91
2022-10-12T08:44:19.763Z,99635.66
2022-10-12T08:49:25.355Z,99632.03
2022-10-12T08:54:35.541Z,99629.97
2022-10-12T08:59:38.188Z,99613.78
2022-10-12T09:04:49.734Z,99621.47
2022-10-12T09:10:12.517Z,99620.53
2022-10-12T09:15:20.224Z,99603.09
2022-10-12T09:20:50.793Z,99611.38
2022-10-12T09:26:06.890Z,99612.34
2022-10-12T09:31:40.257Z,99620.28
2022-10-12T09:36:43.467Z,99613.78
2022-10-12T09:41:48.920Z,99620.22
2022-10-12T09:47:06.419Z,99625.69
2022-10-12T09:52:10.331Z,99621.66
2022-10-12T09:57:21.417Z,99629.91
2022-10-12T10:02:26.698Z,99619.84
2022-10-12T10:07:34.662Z,99627.97
2022-10-12T10:13:01.737Z,99612.75
2022-10-12T10:18:30.467Z,99632.16
2022-10-12T10:23:42.537Z,99618.72
2022-10-12T10:28:46.380Z,99630.53
2022-10-12T10:34:09.957Z,99635.09
2022-10-12T10:39:22.658Z,99630.38
2022-10-12T10:44:33.850Z,99627.78
2022-10-12T10:49:44.386Z,99628.22
2022-10-12T10:55:05.642Z,99634.28
2022-10-12T11:05:50.555Z,99649.34
2022-10-12T11:10:56.335Z,99652.81
2022-10-12T11:16:05.310Z,99660.56
2022-10-12T11:21:14.508Z,99669.38
2022-10-12T11:26:38.526Z,99664.41
2022-10-12T11:31:59.147Z,99677.53
2022-10-12T11:37:19.978Z,99678.53
2022-10-12T11:42:43.068Z,99674.19
2022-10-12T11:47:51.580Z,99664.09
2022-10-12T11:52:56.677Z,99694.16
2022-10-12T11:58:13.136Z,99701.50
2022-10-12T12:03:45.743Z,99691.41
2022-10-12T12:08:48.245Z,99706.97
2022-10-12T12:13:50.994Z,99706.00
2022-10-12T12:19:17.772Z,99716.38
2022-10-12T12:24:20.515Z,99719.09
2022-10-12T12:29:28.333Z,99690.19
2022-10-12T12:34:31.026Z,99724.56
2022-10-12T12:39:35.145Z,99740.16
2022-10-12T12:44:37.673Z,99753.13
2022-10-12T12:49:40.525Z,99749.75
2022-10-12T12:55:08.201Z,99754.97
2022-10-12T13:06:41.003Z,99756.72
2022-10-12T13:12:05.269Z,99755.88
2022-10-12T13:17:31.993Z,99753.28
2022-10-12T13:22:35.378Z,99748.16
2022-10-12T13:27:48.869Z,99760.16
2022-10-12T13:33:02.519Z,99767.94
2022-10-12T13:38:14.192Z,99767.09
2022-10-12T13:43:26.806Z,99775.72
2022-10-12T13:48:59.287Z,99767.97
2022-10-12T13:53:55.766Z,99772.28
2022-10-12T13:59:05.581Z,99739.59
2022-10-12T14:04:11.756Z,99716.38
2022-10-12T14:09:21.798Z,99768.81
2022-10-12T14:14:29.106Z,99776.53
2022-10-12T14:19:53.353Z,99748.97
2022-10-12T14:25:09.157Z,99757.56
2022-10-12T14:30:19.632Z,99762.69
2022-10-12T14:35:32.566Z,99765.25
2022-10-12T14:40:40.652Z,99769.66
2022-10-12T14:45:43.269Z,99781.72
2022-10-12T14:50:46.680Z,99768.81
2022-10-12T14:55:52.295Z,99770.53
2022-10-12T15:00:57.426Z,99748.19
2022-10-12T15:06:00.168Z,99805.75
2022-10-12T15:11:02.747Z,99810.88
2022-10-12T15:16:14.545Z,99818.56
2022-10-12T15:21:17.553Z,99815.88
2022-10-12T15:26:20.254Z,99778.81
2022-10-12T15:31:22.780Z,99822.75
2022-10-12T15:36:25.525Z,99820.06
2022-10-12T15:41:28.701Z,99819.13
2022-10-12T15:46:31.292Z,99844.03
2022-10-12T15:51:39.351Z,99845.69
2022-10-12T15:56:41.923Z,99845.53
2022-10-12T16:01:44.970Z,99849.75
2022-10-12T16:06:47.565Z,99840.25
2022-10-12T16:11:50.359Z,99841.91
2022-10-12T16:16:52.945Z,99857.22
2022-10-12T16:21:55.561Z,99847.56
2022-10-12T16:26:58.330Z,99855.16
2022-10-12T16:32:01.034Z,99853.31
2022-10-12T16:37:03.581Z,99862.81
2022-10-12T16:42:06.493Z,99855.84
2022-10-12T16:47:09.127Z,99865.19
2022-10-12T16:52:12.288Z,99877.13
2022-10-12T16:57:15.025Z,99875.34
2022-10-12T17:02:19.767Z,99842.69
2022-10-12T17:07:22.605Z,99862.31
2022-10-12T17:12:25.889Z,99863.97
2022-10-12T17:17:28.477Z,99849.34
2022-10-12T17:22:31.071Z,99846.97
2022-10-12T17:27:34.153Z,99837.53
2022-10-12T17:32:38.081Z,99857.25
2022-10-12T17:37:40.780Z,99845.31
2022-10-12T17:42:45.022Z,99849.66
2022-10-12T17:47:48.996Z,99855.84
2022-10-12T17:52:51.637Z,99843.03
2022-10-12T17:57:54.236Z,99844.94
2022-10-12T18:02:57.650Z,99845.69
2022-10-12T18:08:00.259Z,99854.16
2022-10-12T18:13:02.861Z,99864.53
2022-10-12T18:18:05.616Z,99859.38
2022-10-12T18:23:08.387Z,99845.69
2022-10-12T18:28:12.292Z,99856.03
2022-10-12T18:33:15.904Z,99869.00
2022-10-12T18:38:18.549Z,99843.03
2022-10-12T18:43:21.170Z,99843.94
2022-10-12T18:48:23.953Z,99867.94
2022-10-12T18:53:28.240Z,99875.84
2022-10-12T18:58:31.954Z,99881.88
2022-10-12T19:03:34.513Z,99869.91
2022-10-12T19:08:37.874Z,99874.25
2022-10-12T19:13:41.398Z,99881.19
2022-10-12T19:18:44.141Z,99866.63
2022-10-12T19:23:47.525Z,99869.25
2022-10-12T19:28:51.242Z,99886.44
2022-10-12T19:33:59.460Z,99882.19
2022-10-12T19:39:07.712Z,99871.00
2022-10-12T19:44:11.589Z,99887.44
2022-10-12T19:49:16.187Z,99884.81
2022-10-12T19:54:19.761Z,99897.69
2022-10-12T19:59:22.344Z,99897.78
2022-10-12T20:04:24.996Z,99890.78
2022-10-12T20:09:27.973Z,99897.53
2022-10-12T20:14:30.605Z,99888.97
2022-10-12T20:19:33.536Z,99905.25
2022-10-12T20:24:37.146Z,99906.84
2022-10-12T20:29:40.272Z,99905.97
2022-10-12T20:34:42.888Z,99916.38
2022-10-12T20:39:49.618Z,99922.41
2022-10-12T20:44:52.272Z,99925.63
2022-10-12T20:49:54.868Z,99927.28
2022-10-12T20:54:58.060Z,99917.47
2022-10-12T21:00:00.739Z,99926.03
2022-10-12T21:05:03.332Z,99936.31
2022-10-12T21:10:06.685Z,99938.03
2022-10-12T21:15:09.880Z,99933.78
2022-10-12T21:20:12.733Z,99943.34
2022-10-12T21:25:15.315Z,99941.69
2022-10-12T21:30:18.110Z,99911.38
2022-10-12T21:35:20.670Z,99955.22
2022-10-12T21:40:23.270Z,99941.56
2022-10-12T21:45:26.274Z,99951.13
2022-10-12T21:50:28.957Z,99958.94
2022-10-12T21:55:33.191Z,99943.53
2022-10-12T22:00:35.859Z,99958.16
2022-10-12T22:05:39.969Z,99944.38
2022-10-12T22:10:42.849Z,99936.50
2022-10-12T22:15:45.737Z,99965.81
2022-10-12T22:20:48.357Z,99978.72
2022-10-12T22:25:51.127Z,99987.34
2022-10-12T22:30:53.651Z,99991.63
2022-10-12T22:35:57.633Z,99987.19
2022-10-12T22:41:11.848Z,99968.19
2022-10-12T22:46:23.639Z,99968.19
2022-10-12T22:51:33.525Z,99995.81
2022-10-12T22:56:36.218Z,100002.72
2022-10-12T23:01:38.858Z,99999.34
2022-10-12T23:06:41.454Z,99994.16
2022-10-12T23:11:44.113Z,99998.44
2022-10-12T23:16:46.677Z,100007.88
2022-10-12T23:21:49.261Z,99988.75
2022-10-12T23:26:51.945Z,100009.34
2022-10-12T23:31:54.557Z,100019.66
2022-10-12T23:36:57.098Z,100015.38
2022-10-12T23:41:59.619Z,100014.47
2022-10-12T23:47:02.154Z,100011.97
2022-10-12T23:52:04.978Z,100012.81
2022-10-12T23:57:22.524Z,100017.91
